sensor_id;sensor_type;location;lat;lon;timestamp;pressure;altitude;pressure_sealevel;temperature;humidity
41234;BME280;26968;42.686;23.352;2023-03-19T00:01:59;95744.66;;;3.02;59.18
41234;BME280;26968;42.686;23.352;2023-03-19T00:04:26;95784.25;;;3.44;58.47
41234;BME280;26968;42.686;23.352;2023-03-19T00:06:51;95752.09;;;3.05;59.16
41234;BME280;26968;42.686;23.352;2023-03-19T00:09:18;95700.78;;;2.60;59.42
41234;BME280;26968;42.686;23.352;2023-03-19T00:11:45;95713.63;;;2.68;59.13
41234;BME280;26968;42.686;23.352;2023-03-19T00:14:10;95681.72;;;2.53;58.93
41234;BME280;26968;42.686;23.352;2023-03-19T00:16:36;95665.53;;;2.31;59.78
41234;BME280;26968;42.686;23.352;2023-03-19T00:19:02;95696.38;;;2.60;59.56
41234;BME280;26968;42.686;23.352;2023-03-19T00:21:28;95755.34;;;3.01;59.26
41234;BME280;26968;42.686;23.352;2023-03-19T00:23:53;95691.59;;;2.51;59.85
41234;BME280;26968;42.686;23.352;2023-03-19T00:26:21;95607.34;;;1.98;59.50
41234;BME280;26968;42.686;23.352;2023-03-19T00:28:47;95738.13;;;2.87;59.78
41234;BME280;26968;42.686;23.352;2023-03-19T00:31:14;95684.13;;;2.54;59.88
41234;BME280;26968;42.686;23.352;2023-03-19T00:33:40;95674.69;;;2.47;60.03
41234;BME280;26968;42.686;23.352;2023-03-19T00:36:07;95762.19;;;3.02;60.03
41234;BME280;26968;42.686;23.352;2023-03-19T00:38:33;95760.75;;;3.06;60.29
41234;BME280;26968;42.686;23.352;2023-03-19T00:41:00;95667.91;;;2.39;60.35
41234;BME280;26968;42.686;23.352;2023-03-19T00:43:26;95685.09;;;2.60;59.90
41234;BME280;26968;42.686;23.352;2023-03-19T00:45:53;95667.84;;;2.46;59.76
41234;BME280;26968;42.686;23.352;2023-03-19T00:48:18;95735.09;;;2.83;59.78
41234;BME280;26968;42.686;23.352;2023-03-19T00:50:46;95755.00;;;2.91;60.30
41234;BME280;26968;42.686;23.352;2023-03-19T00:53:11;95656.03;;;1.99;60.62
41234;BME280;26968;42.686;23.352;2023-03-19T00:55:36;95676.25;;;2.23;60.80
41234;BME280;26968;42.686;23.352;2023-03-19T00:58:02;95744.38;;;2.86;59.97
41234;BME280;26968;42.686;23.352;2023-03-19T01:00:27;95708.41;;;2.68;59.73
41234;BME280;26968;42.686;23.352;2023-03-19T01:02:53;95654.75;;;2.46;60.07
41234;BME280;26968;42.686;23.352;2023-03-19T01:05:19;95748.53;;;2.93;60.26
41234;BME280;26968;42.686;23.352;2023-03-19T01:07:44;95743.69;;;2.97;60.29
41234;BME280;26968;42.686;23.352;2023-03-19T01:10:10;95635.00;;;2.18;60.54
41234;BME280;26968;42.686;23.352;2023-03-19T01:12:36;95603.28;;;2.02;60.58
41234;BME280;26968;42.686;23.352;2023-03-19T01:15:04;95742.72;;;2.91;60.60
41234;BME280;26968;42.686;23.352;2023-03-19T01:17:31;95632.31;;;1.93;61.73
41234;BME280;26968;42.686;23.352;2023-03-19T01:19:56;95673.41;;;2.24;61.26
41234;BME280;26968;42.686;23.352;2023-03-19T01:22:22;95729.09;;;2.76;61.21
41234;BME280;26968;42.686;23.352;2023-03-19T01:24:47;95642.66;;;2.20;60.86
41234;BME280;26968;42.686;23.352;2023-03-19T01:27:12;95682.34;;;2.48;60.50
41234;BME280;26968;42.686;23.352;2023-03-19T01:29:38;95601.53;;;1.96;60.85
41234;BME280;26968;42.686;23.352;2023-03-19T01:32:04;95729.06;;;2.83;60.71
41234;BME280;26968;42.686;23.352;2023-03-19T01:34:30;95614.91;;;2.12;60.70
41234;BME280;26968;42.686;23.352;2023-03-19T01:36:55;95646.00;;;2.33;60.56
41234;BME280;26968;42.686;23.352;2023-03-19T01:39:21;95621.53;;;2.15;60.33
41234;BME280;26968;42.686;23.352;2023-03-19T01:41:46;95650.97;;;2.42;60.25
41234;BME280;26968;42.686;23.352;2023-03-19T01:44:31;95728.59;;;2.92;60.22
41234;BME280;26968;42.686;23.352;2023-03-19T01:47:00;95734.50;;;2.88;60.28
41234;BME280;26968;42.686;23.352;2023-03-19T01:49:27;95648.81;;;2.32;60.26
41234;BME280;26968;42.686;23.352;2023-03-19T01:51:54;95603.25;;;2.08;60.03
41234;BME280;26968;42.686;23.352;2023-03-19T01:54:21;95735.66;;;2.92;59.86
41234;BME280;26968;42.686;23.352;2023-03-19T01:56:52;95744.38;;;2.86;60.06
41234;BME280;26968;42.686;23.352;2023-03-19T01:59:26;95737.72;;;2.83;60.05
41234;BME280;26968;42.686;23.352;2023-03-19T02:02:00;95739.53;;;2.83;59.85
41234;BME280;26968;42.686;23.352;2023-03-19T02:04:28;95736.16;;;2.76;60.37
41234;BME280;26968;42.686;23.352;2023-03-19T02:06:57;95743.81;;;2.77;60.18
41234;BME280;26968;42.686;23.352;2023-03-19T02:09:23;95711.66;;;2.63;60.06
41234;BME280;26968;42.686;23.352;2023-03-19T02:11:50;95708.25;;;2.63;60.21
41234;BME280;26968;42.686;23.352;2023-03-19T02:14:17;95673.53;;;2.43;59.91
41234;BME280;26968;42.686;23.352;2023-03-19T02:16:43;95631.38;;;2.19;60.00
41234;BME280;26968;42.686;23.352;2023-03-19T02:19:12;95686.56;;;2.49;59.85
41234;BME280;26968;42.686;23.352;2023-03-19T02:21:41;95733.28;;;2.84;60.19
41234;BME280;26968;42.686;23.352;2023-03-19T02:24:14;95732.53;;;2.77;60.89
41234;BME280;26968;42.686;23.352;2023-03-19T02:26:43;95688.44;;;2.42;60.73
41234;BME280;26968;42.686;23.352;2023-03-19T02:29:09;95730.72;;;2.77;60.78
41234;BME280;26968;42.686;23.352;2023-03-19T02:31:35;95678.75;;;2.43;60.53
41234;BME280;26968;42.686;23.352;2023-03-19T02:34:04;95737.97;;;2.75;60.84
41234;BME280;26968;42.686;23.352;2023-03-19T02:36:39;95744.00;;;2.76;60.98
41234;BME280;26968;42.686;23.352;2023-03-19T02:39:11;95741.19;;;2.77;60.94
41234;BME280;26968;42.686;23.352;2023-03-19T02:41:39;95741.44;;;2.69;60.73
41234;BME280;26968;42.686;23.352;2023-03-19T02:44:06;95743.03;;;2.70;60.97
41234;BME280;26968;42.686;23.352;2023-03-19T02:46:35;95621.47;;;1.83;61.25
41234;BME280;26968;42.686;23.352;2023-03-19T02:49:01;95741.66;;;2.67;61.08
41234;BME280;26968;42.686;23.352;2023-03-19T02:51:26;95739.81;;;2.75;60.67
41234;BME280;26968;42.686;23.352;2023-03-19T02:53:52;95653.38;;;2.12;61.03
41234;BME280;26968;42.686;23.352;2023-03-19T02:56:17;95745.88;;;2.68;61.01
41234;BME280;26968;42.686;23.352;2023-03-19T02:58:42;95672.88;;;2.09;61.36
41234;BME280;26968;42.686;23.352;2023-03-19T03:01:08;95681.13;;;2.13;61.56
41234;BME280;26968;42.686;23.352;2023-03-19T03:03:33;95747.56;;;2.56;61.65
41234;BME280;26968;42.686;23.352;2023-03-19T03:05:59;95725.44;;;2.46;61.14
41234;BME280;26968;42.686;23.352;2023-03-19T03:08:24;95755.59;;;2.61;61.32
41234;BME280;26968;42.686;23.352;2023-03-19T03:10:50;95643.25;;;1.77;61.29
41234;BME280;26968;42.686;23.352;2023-03-19T03:13:15;95727.75;;;2.29;61.08
41234;BME280;26968;42.686;23.352;2023-03-19T03:15:41;95729.16;;;2.31;60.93
41234;BME280;26968;42.686;23.352;2023-03-19T03:18:06;95647.72;;;1.64;61.47
41234;BME280;26968;42.686;23.352;2023-03-19T03:20:32;95629.94;;;1.28;61.69
41234;BME280;26968;42.686;23.352;2023-03-19T03:22:58;95672.66;;;1.66;61.48
41234;BME280;26968;42.686;23.352;2023-03-19T03:25:23;95668.19;;;1.80;60.97
41234;BME280;26968;42.686;23.352;2023-03-19T03:27:48;95768.56;;;2.43;61.27
41234;BME280;26968;42.686;23.352;2023-03-19T03:30:14;95760.69;;;2.50;60.93
41234;BME280;26968;42.686;23.352;2023-03-19T03:32:40;95767.31;;;2.52;60.82
41234;BME280;26968;42.686;23.352;2023-03-19T03:35:07;95750.16;;;2.18;61.05
41234;BME280;26968;42.686;23.352;2023-03-19T03:37:33;95702.09;;;2.00;60.85
41234;BME280;26968;42.686;23.352;2023-03-19T03:39:59;95575.09;;;1.21;60.60
41234;BME280;26968;42.686;23.352;2023-03-19T03:42:24;95770.97;;;2.45;60.56
41234;BME280;26968;42.686;23.352;2023-03-19T03:44:49;95591.88;;;1.38;60.37
41234;BME280;26968;42.686;23.352;2023-03-19T03:47:16;95746.44;;;2.39;60.25
41234;BME280;26968;42.686;23.352;2023-03-19T03:49:42;95676.94;;;1.99;60.32
41234;BME280;26968;42.686;23.352;2023-03-19T03:52:07;95780.63;;;2.51;60.69
41234;BME280;26968;42.686;23.352;2023-03-19T03:54:33;95688.03;;;1.94;60.48
41234;BME280;26968;42.686;23.352;2023-03-19T03:56:59;95714.72;;;2.16;60.21
41234;BME280;26968;42.686;23.352;2023-03-19T03:59:25;95733.81;;;2.23;60.22
41234;BME280;26968;42.686;23.352;2023-03-19T04:01:50;95756.34;;;2.24;60.22
41234;BME280;26968;42.686;23.352;2023-03-19T04:04:16;95787.13;;;2.35;60.45
41234;BME280;26968;42.686;23.352;2023-03-19T04:06:41;95745.50;;;2.14;60.74
41234;BME280;26968;42.686;23.352;2023-03-19T04:09:07;95686.50;;;1.80;60.35
41234;BME280;26968;42.686;23.352;2023-03-19T04:11:34;95780.66;;;2.38;60.43
41234;BME280;26968;42.686;23.352;2023-03-19T04:14:00;95774.84;;;2.36;60.06
41234;BME280;26968;42.686;23.352;2023-03-19T04:16:27;95777.47;;;2.36;60.44
41234;BME280;26968;42.686;23.352;2023-03-19T04:18:53;95733.47;;;2.13;60.72
41234;BME280;26968;42.686;23.352;2023-03-19T04:21:19;95768.22;;;2.33;60.97
41234;BME280;26968;42.686;23.352;2023-03-19T04:23:45;95776.28;;;2.25;61.22
41234;BME280;26968;42.686;23.352;2023-03-19T04:26:11;95664.84;;;1.46;61.26
41234;BME280;26968;42.686;23.352;2023-03-19T04:28:36;95746.00;;;1.91;61.80
41234;BME280;26968;42.686;23.352;2023-03-19T04:31:04;95662.69;;;1.37;61.94
41234;BME280;26968;42.686;23.352;2023-03-19T04:33:30;95781.16;;;2.08;61.96
41234;BME280;26968;42.686;23.352;2023-03-19T04:35:56;95668.31;;;1.27;62.16
41234;BME280;26968;42.686;23.352;2023-03-19T04:38:22;95638.38;;;1.10;61.95
41234;BME280;26968;42.686;23.352;2023-03-19T04:40:48;95774.00;;;1.90;62.44
41234;BME280;26968;42.686;23.352;2023-03-19T04:43:14;95681.97;;;1.23;62.59
41234;BME280;26968;42.686;23.352;2023-03-19T04:45:40;95790.47;;;1.84;63.04
41234;BME280;26968;42.686;23.352;2023-03-19T04:48:05;95788.28;;;1.75;63.53
41234;BME280;26968;42.686;23.352;2023-03-19T04:50:31;95702.47;;;1.26;63.43
41234;BME280;26968;42.686;23.352;2023-03-19T04:52:57;95785.06;;;1.79;63.12
41234;BME280;26968;42.686;23.352;2023-03-19T04:55:22;95727.41;;;1.41;64.02
41234;BME280;26968;42.686;23.352;2023-03-19T04:57:47;95743.84;;;1.55;63.56
41234;BME280;26968;42.686;23.352;2023-03-19T05:00:13;95779.44;;;1.82;63.97
41234;BME280;26968;42.686;23.352;2023-03-19T05:02:41;95633.59;;;0.87;63.90
41234;BME280;26968;42.686;23.352;2023-03-19T05:05:08;95743.47;;;1.58;64.04
41234;BME280;26968;42.686;23.352;2023-03-19T05:07:33;95715.75;;;1.44;63.76
41234;BME280;26968;42.686;23.352;2023-03-19T05:09:59;95788.06;;;1.89;63.99
41234;BME280;26968;42.686;23.352;2023-03-19T05:12:24;95797.72;;;1.96;63.71
41234;BME280;26968;42.686;23.352;2023-03-19T05:14:51;95792.84;;;1.99;63.53
41234;BME280;26968;42.686;23.352;2023-03-19T05:17:16;95676.16;;;1.34;63.62
41234;BME280;26968;42.686;23.352;2023-03-19T05:19:41;95684.59;;;1.36;63.14
41234;BME280;26968;42.686;23.352;2023-03-19T05:22:07;95790.44;;;2.11;62.74
41234;BME280;26968;42.686;23.352;2023-03-19T05:24:33;95754.28;;;1.81;62.63
41234;BME280;26968;42.686;23.352;2023-03-19T05:26:58;95784.38;;;2.17;62.60
41234;BME280;26968;42.686;23.352;2023-03-19T05:29:23;95752.59;;;2.00;62.65
41234;BME280;26968;42.686;23.352;2023-03-19T05:31:49;95794.78;;;2.30;62.42
41234;BME280;26968;42.686;23.352;2023-03-19T05:34:15;95688.53;;;1.71;62.28
41234;BME280;26968;42.686;23.352;2023-03-19T05:36:40;95684.50;;;1.69;61.70
41234;BME280;26968;42.686;23.352;2023-03-19T05:39:06;95712.22;;;1.89;61.51
41234;BME280;26968;42.686;23.352;2023-03-19T05:41:32;95793.91;;;2.49;61.57
41234;BME280;26968;42.686;23.352;2023-03-19T05:43:57;95632.47;;;1.47;61.43
41234;BME280;26968;42.686;23.352;2023-03-19T05:46:23;95798.72;;;2.52;61.76
41234;BME280;26968;42.686;23.352;2023-03-19T05:48:49;95652.56;;;1.60;61.48
41234;BME280;26968;42.686;23.352;2023-03-19T05:51:14;95780.25;;;2.41;61.18
41234;BME280;26968;42.686;23.352;2023-03-19T05:53:40;95799.34;;;2.48;61.52
41234;BME280;26968;42.686;23.352;2023-03-19T05:56:06;95730.44;;;2.09;61.25
41234;BME280;26968;42.686;23.352;2023-03-19T05:58:32;95801.72;;;2.62;61.46
41234;BME280;26968;42.686;23.352;2023-03-19T06:00:57;95803.31;;;2.63;61.31
41234;BME280;26968;42.686;23.352;2023-03-19T06:03:22;95797.44;;;2.68;61.48
41234;BME280;26968;42.686;23.352;2023-03-19T06:05:49;95731.16;;;2.29;61.02
41234;BME280;26968;42.686;23.352;2023-03-19T06:08:15;95743.81;;;2.39;60.69
41234;BME280;26968;42.686;23.352;2023-03-19T06:10:41;95685.38;;;2.07;61.11
41234;BME280;26968;42.686;23.352;2023-03-19T06:13:06;95737.56;;;2.40;60.47
41234;BME280;26968;42.686;23.352;2023-03-19T06:15:32;95752.63;;;2.51;60.64
41234;BME280;26968;42.686;23.352;2023-03-19T06:17:57;95751.38;;;2.54;60.43
41234;BME280;26968;42.686;23.352;2023-03-19T06:20:23;95804.41;;;2.87;60.47
41234;BME280;26968;42.686;23.352;2023-03-19T06:22:48;95793.50;;;2.90;60.41
41234;BME280;26968;42.686;23.352;2023-03-19T06:25:14;95791.56;;;2.79;60.28
41234;BME280;26968;42.686;23.352;2023-03-19T06:27:41;95801.97;;;2.92;60.03
41234;BME280;26968;42.686;23.352;2023-03-19T06:30:07;95638.38;;;1.87;59.81
41234;BME280;26968;42.686;23.352;2023-03-19T06:32:34;95719.06;;;2.35;60.19
41234;BME280;26968;42.686;23.352;2023-03-19T06:35:00;95719.03;;;2.42;59.84
41234;BME280;26968;42.686;23.352;2023-03-19T06:37:26;95673.25;;;2.19;59.36
41234;BME280;26968;42.686;23.352;2023-03-19T06:39:51;95711.34;;;2.47;59.21
41234;BME280;26968;42.686;23.352;2023-03-19T06:42:19;95808.16;;;3.04;59.28
41234;BME280;26968;42.686;23.352;2023-03-19T06:44:45;95813.56;;;3.09;59.45
41234;BME280;26968;42.686;23.352;2023-03-19T06:47:11;95723.75;;;2.64;59.06
41234;BME280;26968;42.686;23.352;2023-03-19T06:49:36;95719.16;;;2.53;59.10
41234;BME280;26968;42.686;23.352;2023-03-19T06:52:02;95816.94;;;3.17;59.04
41234;BME280;26968;42.686;23.352;2023-03-19T06:54:27;95822.34;;;3.22;58.96
41234;BME280;26968;42.686;23.352;2023-03-19T06:56:53;95707.88;;;2.59;58.58
41234;BME280;26968;42.686;23.352;2023-03-19T06:59:18;95710.06;;;2.62;58.09
41234;BME280;26968;42.686;23.352;2023-03-19T07:01:44;95723.06;;;2.76;57.94
41234;BME280;26968;42.686;23.352;2023-03-19T07:04:11;95759.28;;;2.85;58.80
41234;BME280;26968;42.686;23.352;2023-03-19T07:06:36;95827.81;;;3.45;58.29
41234;BME280;26968;42.686;23.352;2023-03-19T07:09:02;95805.03;;;3.45;58.13
41234;BME280;26968;42.686;23.352;2023-03-19T07:11:28;95656.53;;;2.58;57.81
41234;BME280;26968;42.686;23.352;2023-03-19T07:13:53;95766.03;;;3.31;57.81
41234;BME280;26968;42.686;23.352;2023-03-19T07:16:19;95731.56;;;3.02;57.70
41234;BME280;26968;42.686;23.352;2023-03-19T07:18:44;95805.16;;;3.57;57.60
41234;BME280;26968;42.686;23.352;2023-03-19T07:21:10;95798.84;;;3.65;57.19
41234;BME280;26968;42.686;23.352;2023-03-19T07:23:35;95733.13;;;3.10;57.72
41234;BME280;26968;42.686;23.352;2023-03-19T07:26:00;95744.25;;;3.30;57.27
41234;BME280;26968;42.686;23.352;2023-03-19T07:28:26;95804.56;;;3.80;56.85
41234;BME280;26968;42.686;23.352;2023-03-19T07:30:52;95821.13;;;3.99;57.13
41234;BME280;26968;42.686;23.352;2023-03-19T07:33:18;95704.91;;;3.30;56.34
41234;BME280;26968;42.686;23.352;2023-03-19T07:35:43;95724.72;;;3.26;57.04
41234;BME280;26968;42.686;23.352;2023-03-19T07:38:09;95831.06;;;3.72;57.55
41234;BME280;26968;42.686;23.352;2023-03-19T07:40:35;95750.44;;;3.36;57.45
41234;BME280;26968;42.686;23.352;2023-03-19T07:43:01;95817.41;;;3.63;57.49
41234;BME280;26968;42.686;23.352;2023-03-19T07:45:27;95726.72;;;2.99;57.88
41234;BME280;26968;42.686;23.352;2023-03-19T07:47:52;95709.94;;;3.07;57.47
41234;BME280;26968;42.686;23.352;2023-03-19T07:50:18;95786.41;;;3.54;57.30
41234;BME280;26968;42.686;23.352;2023-03-19T07:52:45;95778.88;;;3.39;56.98
41234;BME280;26968;42.686;23.352;2023-03-19T07:55:11;95741.94;;;3.16;56.91
41234;BME280;26968;42.686;23.352;2023-03-19T07:57:37;95711.75;;;3.06;57.31
41234;BME280;26968;42.686;23.352;2023-03-19T08:00:03;95819.38;;;3.93;56.48
41234;BME280;26968;42.686;23.352;2023-03-19T08:02:29;95757.56;;;3.54;56.76
41234;BME280;26968;42.686;23.352;2023-03-19T08:04:54;95750.72;;;3.53;56.60
41234;BME280;26968;42.686;23.352;2023-03-19T08:07:20;95819.69;;;4.03;56.07
41234;BME280;26968;42.686;23.352;2023-03-19T08:09:45;95770.53;;;3.92;55.63
41234;BME280;26968;42.686;23.352;2023-03-19T08:12:12;95557.09;;;2.45;55.74
41234;BME280;26968;42.686;23.352;2023-03-19T08:14:38;95802.78;;;4.17;56.02
41234;BME280;26968;42.686;23.352;2023-03-19T08:17:04;95812.19;;;4.43;55.96
41234;BME280;26968;42.686;23.352;2023-03-19T08:19:29;95696.75;;;3.81;55.16
41234;BME280;26968;42.686;23.352;2023-03-19T08:21:56;95723.22;;;3.98;54.72
41234;BME280;26968;42.686;23.352;2023-03-19T08:24:21;95705.22;;;4.02;54.27
41234;BME280;26968;42.686;23.352;2023-03-19T08:26:47;95737.19;;;4.28;53.42
41234;BME280;26968;42.686;23.352;2023-03-19T08:29:12;95819.97;;;4.86;53.51
41234;BME280;26968;42.686;23.352;2023-03-19T08:31:38;95751.13;;;4.47;52.63
41234;BME280;26968;42.686;23.352;2023-03-19T08:34:03;95740.72;;;4.41;52.66
41234;BME280;26968;42.686;23.352;2023-03-19T08:36:29;95808.78;;;4.90;52.99
41234;BME280;26968;42.686;23.352;2023-03-19T08:38:55;95767.09;;;4.64;52.51
41234;BME280;26968;42.686;23.352;2023-03-19T08:41:21;95739.59;;;4.48;52.20
41234;BME280;26968;42.686;23.352;2023-03-19T08:43:46;95703.47;;;4.44;51.86
41234;BME280;26968;42.686;23.352;2023-03-19T08:46:12;95744.16;;;4.71;51.38
41234;BME280;26968;42.686;23.352;2023-03-19T08:48:38;95796.63;;;5.08;51.95
41234;BME280;26968;42.686;23.352;2023-03-19T08:51:04;95701.41;;;4.64;52.09
41234;BME280;26968;42.686;23.352;2023-03-19T08:53:30;95652.97;;;4.30;52.59
41234;BME280;26968;42.686;23.352;2023-03-19T08:56:01;95723.16;;;4.83;51.85
41234;BME280;26968;42.686;23.352;2023-03-19T08:58:28;95728.94;;;5.03;52.48
41234;BME280;26968;42.686;23.352;2023-03-19T09:01:00;95750.25;;;5.25;53.13
41234;BME280;26968;42.686;23.352;2023-03-19T09:03:27;95682.63;;;4.90;52.38
41234;BME280;26968;42.686;23.352;2023-03-19T09:05:57;95730.81;;;5.26;51.27
41234;BME280;26968;42.686;23.352;2023-03-19T09:08:23;95695.69;;;5.09;50.30
41234;BME280;26968;42.686;23.352;2023-03-19T09:10:48;95752.59;;;5.56;49.93
41234;BME280;26968;42.686;23.352;2023-03-19T09:13:14;95766.91;;;5.72;50.08
41234;BME280;26968;42.686;23.352;2023-03-19T09:15:40;95737.25;;;5.53;49.77
41234;BME280;26968;42.686;23.352;2023-03-19T09:18:05;95742.41;;;5.71;49.09
41234;BME280;26968;42.686;23.352;2023-03-19T09:20:30;95681.63;;;5.50;48.98
41234;BME280;26968;42.686;23.352;2023-03-19T09:22:56;95622.88;;;5.21;46.36
41234;BME280;26968;42.686;23.352;2023-03-19T09:25:21;95753.38;;;6.03;47.36
41234;BME280;26968;42.686;23.352;2023-03-19T09:27:47;95643.91;;;5.44;47.07
41234;BME280;26968;42.686;23.352;2023-03-19T09:30:13;95710.13;;;5.88;45.13
41234;BME280;26968;42.686;23.352;2023-03-19T09:32:39;95691.00;;;5.80;45.57
41234;BME280;26968;42.686;23.352;2023-03-19T09:35:06;95706.91;;;6.09;45.27
41234;BME280;26968;42.686;23.352;2023-03-19T09:37:31;95697.19;;;6.09;45.34
41234;BME280;26968;42.686;23.352;2023-03-19T09:39:57;95682.19;;;6.10;45.13
41234;BME280;26968;42.686;23.352;2023-03-19T09:45:17;95749.50;;;6.57;44.48
41234;BME280;26968;42.686;23.352;2023-03-19T09:47:45;95746.94;;;6.74;44.61
41234;BME280;26968;42.686;23.352;2023-03-19T09:50:20;95749.75;;;6.84;43.96
41234;BME280;26968;42.686;23.352;2023-03-19T09:55:42;95728.09;;;6.82;45.06
41234;BME280;26968;42.686;23.352;2023-03-19T09:58:19;95730.59;;;6.89;44.64
41234;BME280;26968;42.686;23.352;2023-03-19T10:00:50;95678.88;;;6.71;45.19
41234;BME280;26968;42.686;23.352;2023-03-19T10:11:58;95717.81;;;8.20;42.08
41234;BME280;26968;42.686;23.352;2023-03-19T10:17:16;95677.66;;;10.61;37.50
41234;BME280;26968;42.686;23.352;2023-03-19T10:19:50;95649.81;;;12.11;35.07
41234;BME280;26968;42.686;23.352;2023-03-19T10:22:28;95631.31;;;13.28;32.48
41234;BME280;26968;42.686;23.352;2023-03-19T10:24:56;95653.22;;;14.30;31.02
41234;BME280;26968;42.686;23.352;2023-03-19T10:27:25;95684.88;;;15.40;29.83
41234;BME280;26968;42.686;23.352;2023-03-19T10:29:53;95688.63;;;16.04;28.67
41234;BME280;26968;42.686;23.352;2023-03-19T10:34:50;95538.97;;;16.35;26.14
41234;BME280;26968;42.686;23.352;2023-03-19T10:37:26;95582.50;;;17.13;25.81
41234;BME280;26968;42.686;23.352;2023-03-19T10:39:59;95672.00;;;17.92;25.11
41234;BME280;26968;42.686;23.352;2023-03-19T10:45:27;95665.31;;;18.12;24.79
41234;BME280;26968;42.686;23.352;2023-03-19T10:47:55;95658.41;;;18.68;24.51
41234;BME280;26968;42.686;23.352;2023-03-19T10:50:27;95657.19;;;19.00;24.18
41234;BME280;26968;42.686;23.352;2023-03-19T10:56:05;95599.16;;;18.73;24.10
41234;BME280;26968;42.686;23.352;2023-03-19T10:58:34;95597.28;;;18.91;24.18
41234;BME280;26968;42.686;23.352;2023-03-19T11:01:12;95561.38;;;18.78;23.59
41234;BME280;26968;42.686;23.352;2023-03-19T11:03:54;95604.22;;;19.26;23.90
41234;BME280;26968;42.686;23.352;2023-03-19T11:06:33;95576.91;;;19.07;23.32
41234;BME280;26968;42.686;23.352;2023-03-19T11:09:02;95544.63;;;19.07;23.76
41234;BME280;26968;42.686;23.352;2023-03-19T11:11:47;95613.81;;;19.79;23.30
41234;BME280;26968;42.686;23.352;2023-03-19T11:14:20;95531.63;;;19.26;22.90
41234;BME280;26968;42.686;23.352;2023-03-19T11:17:15;95596.66;;;19.92;23.35
41234;BME280;26968;42.686;23.352;2023-03-19T11:19:57;95554.50;;;20.04;23.29
41234;BME280;26968;42.686;23.352;2023-03-19T11:24:58;95597.53;;;20.80;22.65
41234;BME280;26968;42.686;23.352;2023-03-19T11:27:30;95569.19;;;20.95;22.52
41234;BME280;26968;42.686;23.352;2023-03-19T11:29:56;95521.84;;;20.86;22.97
41234;BME280;26968;42.686;23.352;2023-03-19T11:35:41;95562.59;;;20.84;22.06
41234;BME280;26968;42.686;23.352;2023-03-19T11:38:18;95508.09;;;20.37;22.41
41234;BME280;26968;42.686;23.352;2023-03-19T11:40:54;95560.03;;;20.88;22.44
41234;BME280;26968;42.686;23.352;2023-03-19T11:46:18;95497.19;;;20.54;22.56
41234;BME280;26968;42.686;23.352;2023-03-19T11:49:20;95553.72;;;20.84;22.53
41234;BME280;26968;42.686;23.352;2023-03-19T11:51:51;95503.19;;;20.80;22.30
41234;BME280;26968;42.686;23.352;2023-03-19T12:05:32;95527.63;;;20.96;22.21
41234;BME280;26968;42.686;23.352;2023-03-19T12:25:25;95506.28;;;21.81;22.73
41234;BME280;26968;42.686;23.352;2023-03-19T12:28:21;62207.84;;;-143.51;100.00
41234;BME280;26968;42.686;23.352;2023-03-19T12:36:28;95395.59;;;21.45;21.79
41234;BME280;26968;42.686;23.352;2023-03-19T12:39:17;95491.41;;;21.51;21.79
41234;BME280;26968;42.686;23.352;2023-03-19T12:41:45;95488.03;;;21.90;21.52
41234;BME280;26968;42.686;23.352;2023-03-19T12:44:32;95493.44;;;21.78;21.78
41234;BME280;26968;42.686;23.352;2023-03-19T12:47:06;95488.59;;;21.84;21.39
41234;BME280;26968;42.686;23.352;2023-03-19T12:49:35;95482.53;;;21.75;22.09
41234;BME280;26968;42.686;23.352;2023-03-19T12:54:50;95341.38;;;20.44;22.21
41234;BME280;26968;42.686;23.352;2023-03-19T13:02:43;95431.03;;;21.68;21.72
41234;BME280;26968;42.686;23.352;2023-03-19T13:05:24;95466.13;;;22.16;22.01
41234;BME280;26968;42.686;23.352;2023-03-19T13:08:01;95468.13;;;21.13;24.70
41234;BME280;26968;42.686;23.352;2023-03-19T13:10:29;95470.19;;;21.74;22.78
41234;BME280;26968;42.686;23.352;2023-03-19T13:12:56;95393.91;;;21.77;22.21
41234;BME280;26968;42.686;23.352;2023-03-19T13:15:45;95437.78;;;22.10;22.00
41234;BME280;26968;42.686;23.352;2023-03-19T13:18:29;95413.13;;;21.75;21.74
41234;BME280;26968;42.686;23.352;2023-03-19T13:23:37;95449.91;;;22.16;22.54
41234;BME280;26968;42.686;23.352;2023-03-19T13:26:08;95407.28;;;22.10;22.93
41234;BME280;26968;42.686;23.352;2023-03-19T13:28:36;95441.59;;;22.09;22.14
41234;BME280;26968;42.686;23.352;2023-03-19T13:33:32;95432.50;;;21.65;22.70
41234;BME280;26968;42.686;23.352;2023-03-19T13:36:01;95417.75;;;21.75;22.04
41234;BME280;26968;42.686;23.352;2023-03-19T13:50:17;95424.03;;;22.15;22.31
41234;BME280;26968;42.686;23.352;2023-03-19T13:52:46;95420.88;;;22.25;22.16
41234;BME280;26968;42.686;23.352;2023-03-19T13:55:44;95384.50;;;22.51;21.77
41234;BME280;26968;42.686;23.352;2023-03-19T14:01:01;95411.91;;;21.61;22.21
41234;BME280;26968;42.686;23.352;2023-03-19T14:03:30;95416.41;;;21.69;22.70
41234;BME280;26968;42.686;23.352;2023-03-19T14:05:56;95413.59;;;21.53;22.39
41234;BME280;26968;42.686;23.352;2023-03-19T14:08:28;95344.69;;;21.31;22.44
41234;BME280;26968;42.686;23.352;2023-03-19T14:10:59;95414.03;;;21.67;22.49
41234;BME280;26968;42.686;23.352;2023-03-19T14:13:32;95412.00;;;21.76;22.30
41234;BME280;26968;42.686;23.352;2023-03-19T14:16:06;95386.00;;;21.11;22.79
41234;BME280;26968;42.686;23.352;2023-03-19T14:18:32;95353.53;;;21.44;22.60
41234;BME280;26968;42.686;23.352;2023-03-19T14:21:12;95405.34;;;22.22;22.34
41234;BME280;26968;42.686;23.352;2023-03-19T14:23:40;95325.16;;;21.99;22.65
41234;BME280;26968;42.686;23.352;2023-03-19T14:26:24;95402.47;;;22.71;21.57
41234;BME280;26968;42.686;23.352;2023-03-19T14:28:56;95335.16;;;22.38;21.34
41234;BME280;26968;42.686;23.352;2023-03-19T14:31:39;95394.00;;;23.00;21.30
41234;BME280;26968;42.686;23.352;2023-03-19T14:36:39;95318.28;;;23.16;22.03
41234;BME280;26968;42.686;23.352;2023-03-19T14:39:20;95389.91;;;23.85;21.25
41234;BME280;26968;42.686;23.352;2023-03-19T14:41:50;95294.88;;;23.55;20.60